Pagrindinis puslapis
METAR-TAF:

METAR-TAF

Oro uostai :

Batam, Indonezija

platuma: 01-07-15N, ilguma: 104-07-07E, Aukštis: 38 m

Dabartinis oras

Ataskaita buvo paskelbta 1 valandą ir 31 minutes, ne 18:00 UTC
Ramus vėjas
Temperatūra 26°C
Drėgmė 89%
Slėgis 1011 hPa
Matomumas 10 km arba daugiau
Mažai debesys ne aukštis 1400 ft

METAR: WIDD 221800Z 00000KT 9999 FEW014 26/24 Q1011 NOSIG

Laikas: 02:31 (19:31 UTC)

Prognozė

Ataskaita buvo paskelbta 2 valandos ir 31 minutes, ne 17:00 UTC
Prognozė galioja nuo 22 metu 18 UTC su 23 metu 18 UTC
Vėjas kt iš Šiaurės
Matomumas: 9000 m
Mažai debesys ne aukštis 1400 ft
Tikimybė 30% :
Laikinai
nuo 22 metu 19 UTC su 22 metu 22 UTC
Matomumas: 5000 m
Išsisklaidę debesys ne aukštis 1400 ft
lietus

TAF: WIDD 221700Z 2218/2318 00000KT 9000 FEW014 PROB30 TEMPO 2219/2222 5000 -RA SCT014

Orai ataskaitas ir orų prognozės (METAR, TAF).

turimą stotys yra geltonos ir raudonos taškus žemėlapyje.

Perkelti pele per norėdami pamatyti stoties vardą.

Tada spustelėkite, norėdami matyti oro stebėjimo ir prognozės.

Norėdami pakeisti žemėlapį: spustelėkite ant žalios mygtukų su juodo kryžiaus žemyn,; žalią mygtuką su brūkšneliu, jei norite nutolinti; arba žalių rodyklių gretimoms žemėlapius.


METAR-TAF: